createdAt,value
2018-07-28T00:00:59.924Z,22.36
2018-07-28T00:01:59.949Z,22.31
2018-07-28T00:02:59.975Z,22.28
2018-07-28T00:04:00.005Z,22.33
2018-07-28T00:05:00.034Z,22.34
2018-07-28T00:06:00.055Z,22.34
2018-07-28T00:07:00.081Z,22.23
2018-07-28T00:08:00.105Z,22.23
2018-07-28T00:09:00.130Z,22.30
2018-07-28T00:10:00.158Z,22.21
2018-07-28T00:11:00.170Z,22.19
2018-07-28T00:12:00.197Z,22.22
2018-07-28T00:13:00.241Z,22.23
2018-07-28T00:14:00.248Z,22.23
2018-07-28T00:15:00.275Z,22.23
2018-07-28T00:16:00.300Z,22.22
2018-07-28T00:17:00.327Z,22.31
2018-07-28T00:18:00.352Z,22.16
2018-07-28T00:19:00.376Z,22.26
2018-07-28T00:20:00.404Z,22.15
2018-07-28T00:21:00.428Z,22.25
2018-07-28T00:22:00.442Z,22.14
2018-07-28T00:23:00.468Z,22.15
2018-07-28T00:24:00.497Z,22.18
2018-07-28T00:25:00.522Z,22.16
2018-07-28T00:26:00.548Z,22.08
2018-07-28T00:27:00.575Z,22.16
2018-07-28T00:28:00.597Z,22.08
2018-07-28T00:29:00.624Z,22.16
2018-07-28T00:30:00.650Z,22.04
2018-07-28T00:31:00.675Z,22.15
2018-07-28T00:32:00.691Z,22.07
2018-07-28T00:33:00.717Z,22.12
2018-07-28T00:34:00.742Z,22.10
2018-07-28T00:35:00.782Z,22.10
2018-07-28T00:36:00.794Z,22.07
2018-07-28T00:37:00.820Z,22.00
2018-07-28T00:38:00.847Z,22.01
2018-07-28T00:39:00.872Z,21.99
2018-07-28T00:40:00.896Z,21.96
2018-07-28T00:41:00.921Z,21.96
2018-07-28T00:42:00.948Z,22.03
2018-07-28T00:43:00.962Z,21.97
2018-07-28T00:44:00.991Z,21.91
2018-07-28T00:45:01.016Z,21.96
2018-07-28T00:46:01.042Z,21.89
2018-07-28T00:47:01.067Z,21.94
2018-07-28T00:48:01.094Z,21.88
2018-07-28T00:49:01.117Z,21.88
2018-07-28T00:50:01.149Z,21.85
2018-07-28T00:51:01.170Z,21.72
2018-07-28T00:52:01.183Z,21.83
2018-07-28T00:53:01.213Z,21.85
2018-07-28T00:54:01.233Z,21.72
2018-07-28T00:55:01.262Z,21.89
2018-07-28T00:56:01.290Z,21.89
2018-07-28T00:57:01.313Z,21.78
2018-07-28T00:58:01.340Z,21.77
2018-07-28T00:59:01.366Z,21.80
2018-07-28T01:00:01.391Z,21.72
2018-07-28T01:01:01.416Z,21.80
2018-07-28T01:02:01.430Z,21.72
2018-07-28T01:03:01.455Z,21.72
2018-07-28T01:04:01.488Z,21.74
2018-07-28T01:05:01.511Z,21.63
2018-07-28T01:06:01.536Z,21.77
2018-07-28T01:07:01.562Z,21.66
2018-07-28T01:08:01.587Z,21.75
2018-07-28T01:09:01.614Z,21.70
2018-07-28T01:10:01.640Z,21.66
2018-07-28T01:11:01.652Z,21.65
2018-07-28T01:12:01.692Z,21.62
2018-07-28T01:13:01.701Z,21.68
2018-07-28T01:14:01.741Z,21.63
2018-07-28T01:15:01.754Z,21.60
2018-07-28T01:16:01.782Z,21.68
2018-07-28T01:17:01.807Z,21.59
2018-07-28T01:18:01.846Z,21.65
2018-07-28T01:19:01.860Z,21.60
2018-07-28T01:20:01.872Z,21.62
2018-07-28T01:21:01.898Z,21.48
2018-07-28T01:22:01.924Z,21.56
2018-07-28T01:23:01.950Z,21.53
2018-07-28T01:24:01.975Z,21.50
2018-07-28T01:25:02.003Z,21.58
2018-07-28T01:26:02.028Z,21.53
2018-07-28T01:27:02.054Z,21.50
2018-07-28T01:28:02.068Z,21.50
2018-07-28T01:29:02.094Z,21.50
2018-07-28T01:30:02.120Z,21.54
2018-07-28T01:31:02.145Z,21.54
2018-07-28T01:32:02.170Z,21.45
2018-07-28T01:33:02.195Z,21.50
2018-07-28T01:34:02.234Z,21.43
2018-07-28T01:35:02.247Z,21.40
2018-07-28T01:36:02.263Z,21.48
2018-07-28T01:37:02.290Z,21.41
2018-07-28T01:38:02.316Z,21.44
2018-07-28T01:39:02.346Z,21.48
2018-07-28T01:40:02.367Z,21.44
2018-07-28T01:41:02.394Z,21.44
2018-07-28T01:42:02.419Z,21.47
2018-07-28T01:43:02.433Z,21.45
2018-07-28T01:44:02.456Z,21.45
2018-07-28T01:45:02.482Z,21.47
2018-07-28T01:46:02.508Z,21.48
2018-07-28T01:47:02.538Z,21.47
2018-07-28T01:48:02.564Z,21.38
2018-07-28T01:49:02.588Z,21.35
2018-07-28T01:50:02.619Z,21.40
2018-07-28T01:51:02.627Z,21.35
2018-07-28T01:52:02.653Z,21.35
2018-07-28T01:53:02.677Z,21.47
2018-07-28T01:54:02.705Z,21.38
2018-07-28T01:55:02.729Z,21.37
2018-07-28T01:56:02.755Z,21.33
2018-07-28T01:57:02.782Z,21.41
2018-07-28T01:58:02.796Z,21.41
2018-07-28T01:59:02.820Z,21.35
2018-07-28T02:00:02.848Z,21.40
2018-07-28T02:01:02.874Z,21.43
2018-07-28T02:02:02.916Z,21.35
2018-07-28T02:03:02.925Z,21.38
2018-07-28T02:04:02.950Z,21.40
2018-07-28T02:05:02.964Z,21.35
2018-07-28T02:06:02.990Z,21.33
2018-07-28T02:07:03.016Z,21.35
2018-07-28T02:08:03.045Z,21.32
2018-07-28T02:09:03.070Z,21.35
2018-07-28T02:10:03.096Z,21.32
2018-07-28T02:11:03.124Z,21.37
2018-07-28T02:12:03.134Z,21.29
2018-07-28T02:13:03.161Z,21.33
2018-07-28T02:14:03.184Z,21.37
2018-07-28T02:15:03.211Z,21.30
2018-07-28T02:16:03.243Z,21.26
2018-07-28T02:17:03.264Z,21.26
2018-07-28T02:18:03.293Z,21.22
2018-07-28T02:19:03.315Z,21.25
2018-07-28T02:20:03.328Z,21.19
2018-07-28T02:21:03.353Z,21.20
2018-07-28T02:22:03.379Z,21.17
2018-07-28T02:23:03.408Z,21.23
2018-07-28T02:24:03.433Z,21.19
2018-07-28T02:25:03.462Z,21.20
2018-07-28T02:26:03.485Z,21.32
2018-07-28T02:27:03.499Z,21.20
2018-07-28T02:28:03.524Z,21.22
2018-07-28T02:29:03.550Z,21.14
2018-07-28T02:30:03.594Z,21.19
2018-07-28T02:31:03.604Z,21.19
2018-07-28T02:32:03.625Z,21.20
2018-07-28T02:33:03.652Z,21.13
2018-07-28T02:34:03.666Z,21.19
2018-07-28T02:35:03.692Z,21.23
2018-07-28T02:36:03.719Z,21.17
2018-07-28T02:37:03.746Z,21.19
2018-07-28T02:38:03.771Z,21.15
2018-07-28T02:39:03.797Z,21.14
2018-07-28T02:40:03.831Z,21.05
2018-07-28T02:41:03.834Z,21.08
2018-07-28T02:42:03.860Z,21.10
2018-07-28T02:43:03.886Z,21.10
2018-07-28T02:44:03.912Z,21.10
2018-07-28T02:45:03.938Z,21.07
2018-07-28T02:46:03.976Z,21.01
2018-07-28T02:47:03.990Z,21.01
2018-07-28T02:48:04.006Z,21.07
2018-07-28T02:49:04.032Z,21.08
2018-07-28T02:50:04.058Z,21.10
2018-07-28T02:51:04.084Z,21.01
2018-07-28T02:52:04.108Z,21.03
2018-07-28T02:53:04.134Z,21.04
2018-07-28T02:54:04.153Z,20.93
2018-07-28T02:55:04.172Z,21.03
2018-07-28T02:56:04.200Z,21.05
2018-07-28T02:57:04.237Z,20.96
2018-07-28T02:58:04.252Z,20.92
2018-07-28T02:59:04.279Z,21.00
2018-07-28T03:00:04.316Z,21.00
2018-07-28T03:01:04.320Z,20.96
2018-07-28T03:02:04.344Z,20.96
2018-07-28T03:03:04.370Z,20.98
2018-07-28T03:04:04.394Z,20.93
2018-07-28T03:05:04.425Z,20.90
2018-07-28T03:06:04.434Z,20.92
2018-07-28T03:07:04.459Z,20.95
2018-07-28T03:08:04.502Z,20.93
2018-07-28T03:09:04.513Z,20.89
2018-07-28T03:10:04.539Z,20.78
2018-07-28T03:11:04.566Z,20.82
2018-07-28T03:12:04.578Z,20.83
2018-07-28T03:13:04.602Z,20.78
2018-07-28T03:14:04.629Z,20.86
2018-07-28T03:15:04.655Z,20.80
2018-07-28T03:16:04.684Z,20.78
2018-07-28T03:17:04.706Z,20.78
2018-07-28T03:18:04.737Z,20.82
2018-07-28T03:19:04.746Z,20.82
2018-07-28T03:20:04.773Z,20.78
2018-07-28T03:21:04.806Z,20.82
2018-07-28T03:22:04.825Z,20.78
2018-07-28T03:23:04.863Z,20.74
2018-07-28T03:24:04.877Z,20.78
2018-07-28T03:25:04.892Z,20.77
2018-07-28T03:26:04.914Z,20.80
2018-07-28T03:27:04.941Z,20.75
2018-07-28T03:28:04.969Z,20.78
2018-07-28T03:29:04.994Z,20.74
2018-07-28T03:30:05.021Z,20.75
2018-07-28T03:31:05.034Z,20.75
2018-07-28T03:32:05.061Z,20.77
2018-07-28T03:33:05.085Z,20.74
2018-07-28T03:34:05.115Z,20.66
2018-07-28T03:35:05.136Z,20.66
2018-07-28T03:36:05.162Z,20.63
2018-07-28T03:37:05.175Z,20.64
2018-07-28T03:38:05.200Z,20.66
2018-07-28T03:39:05.227Z,20.70
2018-07-28T03:40:05.255Z,20.63
2018-07-28T03:41:05.280Z,20.66
2018-07-28T03:42:05.307Z,20.59
2018-07-28T03:43:05.320Z,20.70
2018-07-28T03:44:05.342Z,20.73
2018-07-28T03:45:05.368Z,20.77
2018-07-28T03:46:05.395Z,20.68
2018-07-28T03:47:05.421Z,20.70
2018-07-28T03:48:05.446Z,20.75
2018-07-28T03:49:05.462Z,20.63
2018-07-28T03:50:05.487Z,20.71
2018-07-28T03:51:05.513Z,20.63
2018-07-28T03:52:05.541Z,20.63
2018-07-28T03:53:05.566Z,20.71
2018-07-28T03:54:05.592Z,20.74
2018-07-28T03:55:05.607Z,20.64
2018-07-28T03:56:05.629Z,20.75
2018-07-28T03:57:05.655Z,20.71
2018-07-28T03:58:05.681Z,20.71
2018-07-28T03:59:05.720Z,20.77
2018-07-28T04:00:05.736Z,20.77
2018-07-28T04:01:05.750Z,20.80
2018-07-28T04:02:05.776Z,20.77
2018-07-28T04:03:05.801Z,20.75
2018-07-28T04:04:05.853Z,20.70
2018-07-28T04:05:05.853Z,20.71
2018-07-28T04:06:05.878Z,20.80
2018-07-28T04:07:05.904Z,20.80
2018-07-28T04:08:05.916Z,20.77
2018-07-28T04:09:05.943Z,20.80
2018-07-28T04:10:05.966Z,20.80
2018-07-28T04:11:05.992Z,20.82
2018-07-28T04:12:06.022Z,20.83
2018-07-28T04:13:06.047Z,20.83
2018-07-28T04:14:06.061Z,20.80
2018-07-28T04:15:06.088Z,20.78
2018-07-28T04:16:06.110Z,20.82
2018-07-28T04:17:06.137Z,20.83
2018-07-28T04:18:06.162Z,20.83
2018-07-28T04:19:06.190Z,20.89
2018-07-28T04:20:06.208Z,20.92
2018-07-28T04:21:06.242Z,20.88
2018-07-28T04:22:06.261Z,20.90
2018-07-28T04:23:06.280Z,20.92
2018-07-28T04:24:06.305Z,20.95
2018-07-28T04:25:06.331Z,20.88
2018-07-28T04:26:06.356Z,20.96
2018-07-28T04:27:06.377Z,20.92
2018-07-28T04:28:06.402Z,20.95
2018-07-28T04:29:06.427Z,20.98
2018-07-28T04:30:06.451Z,20.98
2018-07-28T04:31:06.477Z,20.98
2018-07-28T04:32:06.501Z,20.95
2018-07-28T04:33:06.527Z,21.03
2018-07-28T04:34:06.539Z,21.08
2018-07-28T04:35:06.566Z,21.07
2018-07-28T04:36:06.591Z,21.05
2018-07-28T04:37:06.706Z,21.08
2018-07-28T04:38:06.645Z,21.04
2018-07-28T04:39:06.669Z,21.08
2018-07-28T04:40:06.685Z,21.07
2018-07-28T04:41:06.711Z,21.13
2018-07-28T04:42:06.736Z,21.13
2018-07-28T04:43:06.763Z,21.13
2018-07-28T04:44:06.845Z,21.08
2018-07-28T04:45:06.812Z,21.20
2018-07-28T04:46:06.839Z,21.15
2018-07-28T04:47:06.864Z,21.25
2018-07-28T04:48:06.879Z,21.25
2018-07-28T04:49:06.905Z,21.25
2018-07-28T04:50:06.932Z,21.20
2018-07-28T04:51:06.956Z,21.20
2018-07-28T04:52:06.982Z,21.17
2018-07-28T04:53:07.008Z,21.22
2018-07-28T04:54:07.034Z,21.22
2018-07-28T04:55:07.048Z,21.29
2018-07-28T04:56:07.073Z,21.23
2018-07-28T04:57:07.102Z,21.23
2018-07-28T04:58:07.125Z,21.28
2018-07-28T04:59:07.150Z,21.22
2018-07-28T05:00:07.178Z,21.30
2018-07-28T05:01:07.204Z,21.20
2018-07-28T05:02:07.218Z,21.25
2018-07-28T05:03:07.243Z,21.23
2018-07-28T05:04:07.266Z,21.25
2018-07-28T05:05:07.305Z,21.32
2018-07-28T05:06:07.319Z,21.28
2018-07-28T05:07:07.345Z,21.30
2018-07-28T05:08:07.370Z,21.33
2018-07-28T05:09:07.397Z,21.33
2018-07-28T05:10:07.410Z,21.37
2018-07-28T05:11:07.438Z,21.29
2018-07-28T05:12:07.471Z,21.40
2018-07-28T05:13:07.493Z,21.38
2018-07-28T05:14:07.516Z,21.43
2018-07-28T05:15:07.543Z,21.47
2018-07-28T05:16:07.567Z,21.48
2018-07-28T05:17:07.593Z,21.53
2018-07-28T05:18:07.606Z,21.56
2018-07-28T05:19:07.632Z,21.51
2018-07-28T05:20:07.659Z,21.53
2018-07-28T05:21:07.687Z,21.58
2018-07-28T05:22:07.712Z,21.51
2018-07-28T05:23:07.737Z,21.60
2018-07-28T05:24:07.763Z,21.66
2018-07-28T05:25:07.789Z,21.63
2018-07-28T05:26:07.814Z,21.62
2018-07-28T05:27:07.830Z,21.69
2018-07-28T05:28:07.852Z,21.72
2018-07-28T05:29:07.878Z,21.78
2018-07-28T05:30:07.904Z,21.77
2018-07-28T05:31:07.938Z,21.89
2018-07-28T05:32:07.958Z,21.81
2018-07-28T05:33:07.986Z,21.91
2018-07-28T05:34:08.011Z,21.97
2018-07-28T05:35:08.036Z,21.89
2018-07-28T05:36:08.047Z,22.00
2018-07-28T05:37:08.084Z,22.06
2018-07-28T05:38:08.099Z,22.04
2018-07-28T05:39:08.199Z,22.06
2018-07-28T05:40:08.151Z,22.06
2018-07-28T05:41:08.178Z,22.19
2018-07-28T05:42:08.208Z,22.07
2018-07-28T05:43:08.230Z,22.08
2018-07-28T05:44:08.257Z,22.18
2018-07-28T05:45:08.283Z,22.31
2018-07-28T05:46:08.311Z,22.22
2018-07-28T05:47:08.335Z,22.23
2018-07-28T05:48:08.349Z,22.30
2018-07-28T05:49:08.373Z,22.25
2018-07-28T05:50:08.409Z,22.33
2018-07-28T05:51:08.424Z,22.38
2018-07-28T05:52:08.453Z,22.43
2018-07-28T05:53:08.482Z,22.41
2018-07-28T05:54:08.506Z,22.55
2018-07-28T05:55:08.530Z,22.46
2018-07-28T05:56:08.558Z,22.52
2018-07-28T05:57:08.582Z,22.59
2018-07-28T05:58:08.608Z,22.58
2018-07-28T05:59:08.634Z,22.58
2018-07-28T06:00:08.657Z,22.58
2018-07-28T06:01:08.684Z,22.67
2018-07-28T06:02:08.745Z,22.70
2018-07-28T06:03:08.740Z,22.68
2018-07-28T06:04:08.752Z,22.81
2018-07-28T06:05:08.776Z,22.76
2018-07-28T06:06:08.803Z,22.81
2018-07-28T06:07:08.827Z,22.81
2018-07-28T06:08:08.852Z,22.89
2018-07-28T06:09:08.878Z,22.93
2018-07-28T06:10:08.917Z,22.98
2018-07-28T06:11:08.929Z,23.06
2018-07-28T06:12:08.956Z,23.11
2018-07-28T06:13:08.981Z,23.06
2018-07-28T06:14:09.018Z,23.14
2018-07-28T06:15:09.033Z,23.16
2018-07-28T06:16:09.062Z,23.18
2018-07-28T06:17:09.090Z,23.20
2018-07-28T06:18:09.113Z,23.26
2018-07-28T06:19:09.138Z,23.32
2018-07-28T06:20:09.197Z,23.34
2018-07-28T06:21:09.188Z,23.45
2018-07-28T06:22:09.215Z,23.55
2018-07-28T06:23:09.241Z,23.58
2018-07-28T06:24:09.268Z,23.67
2018-07-28T06:25:09.299Z,23.76
2018-07-28T06:26:09.321Z,23.81
2018-07-28T06:27:09.347Z,23.92
2018-07-28T06:28:09.370Z,23.96
2018-07-28T06:29:09.406Z,24.09
2018-07-28T06:30:09.422Z,24.16
2018-07-28T06:31:09.447Z,24.21
2018-07-28T06:32:09.476Z,24.34
2018-07-28T06:33:09.502Z,24.51
2018-07-28T06:34:09.529Z,24.62
2018-07-28T06:35:09.553Z,24.61
2018-07-28T06:36:09.578Z,24.81
2018-07-28T06:37:09.608Z,24.77
2018-07-28T06:38:09.631Z,24.94
2018-07-28T06:39:09.669Z,25.11
2018-07-28T06:40:09.698Z,25.31
2018-07-28T06:41:09.724Z,25.40
2018-07-28T06:42:09.748Z,25.66
2018-07-28T06:43:09.803Z,25.88
2018-07-28T06:44:09.800Z,25.98
2018-07-28T06:45:09.838Z,26.23
2018-07-28T06:46:09.864Z,26.30
2018-07-28T06:47:09.935Z,26.64
2018-07-28T06:48:09.913Z,26.81
2018-07-28T06:49:09.954Z,26.97
2018-07-28T06:50:09.981Z,27.19
2018-07-28T06:51:10.011Z,27.30
2018-07-28T06:52:10.045Z,27.53
2018-07-28T06:53:10.084Z,27.67
2018-07-28T06:54:10.097Z,27.88
2018-07-28T06:55:10.136Z,28.00
2018-07-28T06:56:10.160Z,28.18
2018-07-28T06:57:10.185Z,28.35
2018-07-28T06:58:10.226Z,28.59
2018-07-28T06:59:10.252Z,28.83
2018-07-28T07:00:10.538Z,28.89
2018-07-28T07:01:10.314Z,28.90
2018-07-28T07:02:10.352Z,29.21
2018-07-28T07:03:10.378Z,29.31
2018-07-28T07:04:10.419Z,29.44
2018-07-28T07:05:10.447Z,29.64
2018-07-28T07:06:10.483Z,29.68
2018-07-28T07:07:10.509Z,29.86
2018-07-28T07:08:10.547Z,30.02
2018-07-28T07:09:10.572Z,30.27
2018-07-28T07:10:10.610Z,30.40
2018-07-28T07:11:10.635Z,30.51
2018-07-28T07:12:10.677Z,30.63
2018-07-28T07:13:10.702Z,30.73
2018-07-28T07:14:10.741Z,30.93
2018-07-28T07:15:10.780Z,31.14
2018-07-28T07:16:10.805Z,31.17
2018-07-28T07:17:10.845Z,31.28
2018-07-28T07:18:10.885Z,31.30
2018-07-28T07:19:10.908Z,31.42
2018-07-28T07:20:10.944Z,31.48
2018-07-28T07:21:10.972Z,31.51
2018-07-28T07:22:11.009Z,31.60
2018-07-28T07:23:11.047Z,31.79
2018-07-28T07:24:11.076Z,31.79
2018-07-28T07:25:11.117Z,31.86
2018-07-28T07:26:11.152Z,31.93
2018-07-28T07:27:11.190Z,32.00
2018-07-28T07:28:11.214Z,32.19
2018-07-28T07:29:11.252Z,32.16
2018-07-28T07:30:11.291Z,32.34
2018-07-28T07:31:11.328Z,32.45
2018-07-28T07:32:11.356Z,32.44
2018-07-28T07:33:11.397Z,32.60
2018-07-28T07:34:11.438Z,32.67
2018-07-28T07:35:11.473Z,32.72
2018-07-28T07:36:11.543Z,32.79
2018-07-28T07:37:11.547Z,32.90
2018-07-28T07:38:11.575Z,33.01
2018-07-28T07:39:11.611Z,33.03
2018-07-28T07:40:11.640Z,33.05
2018-07-28T07:41:11.679Z,33.08
2018-07-28T07:42:11.716Z,33.05
2018-07-28T07:43:11.755Z,33.16
2018-07-28T07:44:11.790Z,33.28
2018-07-28T07:45:11.819Z,33.23
2018-07-28T07:46:11.859Z,33.31
2018-07-28T07:47:11.934Z,33.28
2018-07-28T07:48:11.936Z,33.28
2018-07-28T07:49:11.970Z,33.32
2018-07-28T07:50:12.010Z,33.38
2018-07-28T07:51:12.048Z,33.36
2018-07-28T07:52:12.077Z,33.39
2018-07-28T07:53:12.114Z,33.31
2018-07-28T07:54:12.153Z,33.36
2018-07-28T07:55:12.192Z,33.40
2018-07-28T07:56:12.227Z,33.42
2018-07-28T07:57:12.266Z,33.40
2018-07-28T07:58:12.316Z,33.39
2018-07-28T07:59:12.343Z,33.42
2018-07-28T08:00:12.371Z,33.45
2018-07-28T08:01:12.410Z,33.55
2018-07-28T08:02:12.448Z,33.44
2018-07-28T08:03:12.486Z,33.54
2018-07-28T08:04:12.524Z,33.54
2018-07-28T08:05:12.564Z,33.57
2018-07-28T08:06:12.603Z,33.53
2018-07-28T08:07:12.639Z,33.42
2018-07-28T08:08:12.679Z,33.50
2018-07-28T08:09:12.716Z,33.33
2018-07-28T08:10:12.754Z,33.48
2018-07-28T08:11:12.791Z,33.50
2018-07-28T08:12:12.821Z,33.39
2018-07-28T08:13:12.858Z,33.42
2018-07-28T08:14:12.896Z,33.39
2018-07-28T08:15:12.936Z,33.50
2018-07-28T08:16:12.971Z,33.42
2018-07-28T08:17:13.012Z,33.44
2018-07-28T08:18:13.047Z,33.55
2018-07-28T08:19:13.086Z,33.55
2018-07-28T08:20:13.124Z,33.65
2018-07-28T08:21:13.164Z,33.77
2018-07-28T08:22:13.203Z,33.81
2018-07-28T08:23:13.242Z,33.88
2018-07-28T08:24:13.287Z,33.95
2018-07-28T08:25:13.320Z,34.10
2018-07-28T08:26:13.357Z,34.00
2018-07-28T08:27:13.396Z,34.07
2018-07-28T08:28:13.444Z,34.04
2018-07-28T08:29:13.472Z,33.94
2018-07-28T08:30:13.509Z,34.00
2018-07-28T08:31:13.548Z,33.97
2018-07-28T08:32:13.588Z,33.94
2018-07-28T08:33:13.629Z,33.98
2018-07-28T08:34:13.664Z,33.85
2018-07-28T08:35:13.703Z,33.84
2018-07-28T08:36:13.740Z,33.88
2018-07-28T08:37:13.779Z,33.82
2018-07-28T08:38:13.817Z,33.89
2018-07-28T08:39:13.868Z,33.73
2018-07-28T08:40:13.896Z,33.75
2018-07-28T08:41:13.947Z,33.72
2018-07-28T08:42:13.973Z,33.67
2018-07-28T08:43:14.012Z,33.65
2018-07-28T08:44:14.047Z,33.48
2018-07-28T08:45:14.099Z,33.50
2018-07-28T08:46:14.124Z,33.36
2018-07-28T08:47:14.166Z,33.42
2018-07-28T08:48:14.202Z,33.42
2018-07-28T08:49:14.264Z,33.42
2018-07-28T08:50:14.293Z,33.42
2018-07-28T08:51:14.322Z,33.32
2018-07-28T08:52:14.357Z,33.29
2018-07-28T08:53:14.396Z,33.29
2018-07-28T08:54:14.437Z,33.22
2018-07-28T08:55:14.473Z,33.20
2018-07-28T08:56:14.497Z,33.08
2018-07-28T08:57:14.534Z,33.01
2018-07-28T08:58:14.574Z,33.08
2018-07-28T08:59:14.611Z,33.08
2018-07-28T09:00:14.652Z,33.03
2018-07-28T09:01:14.690Z,33.00
2018-07-28T09:02:14.729Z,33.03
2018-07-28T09:03:14.781Z,32.91
2018-07-28T09:04:14.790Z,32.97
2018-07-28T09:05:14.830Z,32.91
2018-07-28T09:06:14.868Z,32.86
2018-07-28T09:07:14.906Z,32.85
2018-07-28T09:08:14.946Z,32.94
2018-07-28T09:09:14.984Z,32.95
2018-07-28T09:10:15.021Z,33.00
2018-07-28T09:11:15.048Z,32.97
2018-07-28T09:12:15.097Z,32.82
2018-07-28T09:13:15.126Z,32.78
2018-07-28T09:14:15.165Z,32.75
2018-07-28T09:15:15.203Z,32.78
2018-07-28T09:16:15.240Z,32.83
2018-07-28T09:17:15.266Z,32.83
2018-07-28T09:18:15.305Z,32.85
2018-07-28T09:19:15.344Z,32.79
2018-07-28T09:20:15.382Z,32.73
2018-07-28T09:21:15.422Z,32.75
2018-07-28T09:22:15.460Z,32.83
2018-07-28T09:23:15.561Z,32.90
2018-07-28T09:24:15.525Z,32.97
2018-07-28T09:25:15.563Z,32.98
2018-07-28T09:26:15.602Z,32.97
2018-07-28T09:27:15.639Z,33.04
2018-07-28T09:28:15.676Z,33.01
2018-07-28T09:29:15.713Z,33.00
2018-07-28T09:30:15.755Z,33.09
2018-07-28T09:31:15.791Z,33.19
2018-07-28T09:32:15.822Z,33.28
2018-07-28T09:33:15.857Z,33.42
2018-07-28T09:34:15.896Z,33.42
2018-07-28T09:35:15.937Z,33.57
2018-07-28T09:36:15.983Z,33.67
2018-07-28T09:37:16.013Z,33.79
2018-07-28T09:38:16.048Z,33.92
2018-07-28T09:39:16.089Z,34.00
2018-07-28T09:40:16.125Z,34.07
2018-07-28T09:41:16.163Z,34.24
2018-07-28T09:42:16.206Z,34.24
2018-07-28T09:43:16.240Z,34.47
2018-07-28T09:44:16.289Z,34.59
2018-07-28T09:45:16.341Z,34.62
2018-07-28T09:46:16.394Z,34.66
2018-07-28T09:47:16.396Z,34.82
2018-07-28T09:48:16.445Z,34.79
2018-07-28T09:49:16.470Z,34.81
2018-07-28T09:50:16.508Z,34.75
2018-07-28T09:51:16.548Z,34.83
2018-07-28T09:52:16.588Z,34.94
2018-07-28T09:53:16.626Z,34.89
2018-07-28T09:54:16.677Z,35.05
2018-07-28T09:55:16.705Z,35.13
2018-07-28T09:56:16.761Z,35.19
2018-07-28T09:57:16.780Z,35.27
2018-07-28T09:58:16.818Z,35.38
2018-07-28T09:59:16.857Z,35.45
2018-07-28T10:00:16.905Z,35.50
2018-07-28T10:01:16.944Z,35.61
2018-07-28T10:02:16.983Z,35.71
2018-07-28T10:03:17.033Z,35.82
2018-07-28T10:04:17.062Z,35.79
2018-07-28T10:05:17.099Z,35.98
2018-07-28T10:06:17.138Z,36.01
2018-07-28T10:07:17.176Z,36.09
2018-07-28T10:08:17.217Z,36.20
2018-07-28T10:09:17.264Z,36.20
2018-07-28T10:10:17.292Z,36.14
2018-07-28T10:11:17.341Z,36.17
2018-07-28T10:12:17.389Z,36.22
2018-07-28T10:13:17.419Z,36.28
2018-07-28T10:14:17.456Z,36.39
2018-07-28T10:15:17.495Z,36.44
2018-07-28T10:16:17.556Z,36.69
2018-07-28T10:17:17.585Z,36.69
2018-07-28T10:18:17.624Z,36.87
2018-07-28T10:19:17.662Z,36.87
2018-07-28T10:20:17.699Z,36.94
2018-07-28T10:21:17.750Z,37.04
2018-07-28T10:22:17.788Z,37.10
2018-07-28T10:23:17.828Z,37.37
2018-07-28T10:24:17.867Z,37.44
2018-07-28T10:25:17.917Z,37.60
2018-07-28T10:26:17.956Z,37.61
2018-07-28T10:27:17.997Z,37.79
2018-07-28T10:28:18.046Z,37.92
2018-07-28T10:29:18.088Z,37.98
2018-07-28T10:30:18.207Z,38.19
2018-07-28T10:31:18.173Z,38.31
2018-07-28T10:32:18.211Z,38.48
2018-07-28T10:33:18.249Z,38.56
2018-07-28T10:34:18.299Z,38.62
2018-07-28T10:35:18.341Z,38.68
2018-07-28T10:36:18.403Z,38.81
2018-07-28T10:37:18.428Z,38.87
2018-07-28T10:38:18.467Z,38.84
2018-07-28T10:39:18.518Z,38.98
2018-07-28T10:40:18.555Z,39.11
2018-07-28T10:41:18.609Z,39.12
2018-07-28T10:42:18.644Z,39.30
2018-07-28T10:43:18.683Z,39.27
2018-07-28T10:44:18.736Z,39.48
2018-07-28T10:45:18.775Z,39.42
2018-07-28T10:46:18.828Z,39.49
2018-07-28T10:47:18.863Z,39.59
2018-07-28T10:48:18.901Z,39.73
2018-07-28T10:49:18.951Z,39.86
2018-07-28T10:50:18.993Z,39.94
2018-07-28T10:51:19.043Z,39.98
2018-07-28T10:52:19.081Z,40.20
2018-07-28T10:53:19.131Z,40.22
2018-07-28T10:54:19.182Z,40.44
2018-07-28T10:55:19.210Z,40.55
2018-07-28T10:56:19.258Z,40.81
2018-07-28T10:57:19.296Z,40.99
2018-07-28T10:58:19.334Z,41.00
2018-07-28T10:59:19.385Z,41.10
2018-07-28T11:00:19.452Z,41.30
2018-07-28T11:01:19.486Z,41.42
2018-07-28T11:02:19.513Z,41.58
2018-07-28T11:03:19.567Z,41.67
2018-07-28T11:04:19.603Z,41.63
2018-07-28T11:05:19.654Z,41.73
2018-07-28T11:06:19.724Z,41.74
2018-07-28T11:07:19.745Z,41.76
2018-07-28T11:08:19.780Z,41.84
2018-07-28T11:09:19.832Z,41.98
2018-07-28T11:10:19.871Z,42.14
2018-07-28T11:11:19.921Z,42.10
2018-07-28T11:12:19.960Z,42.10
2018-07-28T11:13:20.012Z,42.09
2018-07-28T11:14:20.055Z,42.00
2018-07-28T11:15:20.105Z,42.00
2018-07-28T11:16:20.140Z,41.80
2018-07-28T11:17:20.191Z,41.73
2018-07-28T11:18:20.230Z,41.48
2018-07-28T11:19:20.280Z,41.49
2018-07-28T11:20:20.317Z,41.26
2018-07-28T11:21:20.355Z,41.03
2018-07-28T11:22:20.407Z,40.83
2018-07-28T11:23:20.449Z,40.62
2018-07-28T11:24:20.485Z,40.44
2018-07-28T11:25:20.536Z,40.19
2018-07-28T11:26:20.600Z,39.95
2018-07-28T11:27:20.614Z,39.88
2018-07-28T11:28:20.651Z,39.73
2018-07-28T11:29:20.690Z,39.70
2018-07-28T11:30:20.739Z,39.66
2018-07-28T11:31:20.780Z,39.61
2018-07-28T11:32:20.816Z,39.59
2018-07-28T11:33:20.886Z,39.59
2018-07-28T11:34:20.892Z,39.66
2018-07-28T11:35:20.931Z,39.66
2018-07-28T11:36:20.998Z,39.66
2018-07-28T11:37:21.022Z,39.67
2018-07-28T11:38:21.060Z,39.56
2018-07-28T11:39:21.100Z,39.57
2018-07-28T11:40:21.137Z,39.66
2018-07-28T11:41:21.176Z,39.63
2018-07-28T11:42:21.213Z,39.73
2018-07-28T11:43:21.264Z,39.82
2018-07-28T11:44:21.304Z,39.98
2018-07-28T11:45:21.355Z,40.12
2018-07-28T11:46:21.384Z,40.26
2018-07-28T11:47:21.422Z,40.24
2018-07-28T11:48:21.470Z,40.44
2018-07-28T11:49:21.508Z,40.51
2018-07-28T11:50:21.546Z,40.48
2018-07-28T11:51:21.629Z,40.44
2018-07-28T11:52:21.622Z,40.46
2018-07-28T11:53:21.673Z,40.49
2018-07-28T11:54:21.715Z,40.51
2018-07-28T11:55:21.750Z,40.54
2018-07-28T11:56:21.790Z,40.51
2018-07-28T11:57:21.841Z,40.64
2018-07-28T11:58:21.971Z,40.74
2018-07-28T11:59:21.918Z,40.96
2018-07-28T12:00:21.953Z,41.00
2018-07-28T12:01:21.994Z,41.12
2018-07-28T12:02:22.044Z,41.17
2018-07-28T12:03:22.082Z,41.30
2018-07-28T12:04:22.120Z,41.33
2018-07-28T12:05:22.208Z,41.48
2018-07-28T12:06:22.209Z,41.64
2018-07-28T12:07:22.252Z,41.87
2018-07-28T12:08:22.289Z,42.02
2018-07-28T12:09:22.339Z,42.14
2018-07-28T12:10:22.379Z,42.41
2018-07-28T12:11:22.415Z,42.43
2018-07-28T12:12:22.465Z,42.49
2018-07-28T12:13:22.503Z,42.51
2018-07-28T12:14:22.542Z,42.39
2018-07-28T12:15:22.593Z,42.46
2018-07-28T12:16:22.633Z,42.24
2018-07-28T12:17:22.671Z,42.17
2018-07-28T12:18:22.723Z,42.02
2018-07-28T12:19:22.762Z,41.83
2018-07-28T12:20:22.800Z,41.65
2018-07-28T12:21:22.839Z,41.45
2018-07-28T12:22:22.889Z,41.33
2018-07-28T12:23:22.926Z,41.15
2018-07-28T12:24:22.963Z,41.08
2018-07-28T12:25:23.001Z,41.07
2018-07-28T12:26:23.041Z,41.03
2018-07-28T12:27:23.091Z,40.86
2018-07-28T12:28:23.131Z,40.90
2018-07-28T12:29:23.171Z,41.05
2018-07-28T12:30:23.223Z,41.23
2018-07-28T12:31:23.249Z,41.26
2018-07-28T12:32:23.297Z,41.48
2018-07-28T12:33:23.333Z,41.71
2018-07-28T12:34:23.373Z,42.05
2018-07-28T12:35:23.411Z,42.10
2018-07-28T12:36:23.464Z,42.24
2018-07-28T12:37:23.500Z,42.20
2018-07-28T12:38:23.538Z,42.52
2018-07-28T12:39:23.589Z,42.63
2018-07-28T12:40:23.630Z,42.77
2018-07-28T12:41:23.668Z,42.90
2018-07-28T12:42:23.719Z,42.93
2018-07-28T12:43:23.760Z,43.09
2018-07-28T12:44:23.795Z,43.25
2018-07-28T12:45:23.845Z,43.22
2018-07-28T12:46:23.885Z,43.08
2018-07-28T12:47:23.937Z,43.12
2018-07-28T12:48:23.975Z,43.27
2018-07-28T12:49:24.035Z,43.27
2018-07-28T12:50:24.067Z,43.19
2018-07-28T12:51:24.102Z,43.28
2018-07-28T12:52:24.151Z,43.38
2018-07-28T12:53:24.191Z,43.32